»·PEaware :: N212ZH KSMX-KBFL

N212ZH :: KSMX-KBFL

FLIGHT INFORMATION

Flight Status: Arrived
Operator: Privately registered:
United States
More flights under this callsign
Pilot: Piotr P. (26972)
Aircraft: CESSNA 172 SKYHAWK
(C172)
More flights by this aircraft type
Origin: KSMX Santa Maria Pub/Capt Hancock
United States
Destination: KBFL Meadows
United States
More flights between these airports :: More routes between these airports
Route: +
File this flight plan on PilotEdge
Remarks:
Altitude:
(Current/Filed)
5,500ft
Speed:
(Current/Filed)
0kts
Departed: 02-Dec-19 07:38 PM
Arrived: 02-Dec-19 08:15 PM
Distance/Time
Traveled:
1nm/0:37
Distance/Time
To Go:
Arrived

Flight Plot

Page will automatically refresh every two minutes.


Map Options




Map Legend


Flown Route
Filed Route
Departure Airport
Arrival Airport
Navaid (VOR, NDB)
Fix

Horizontal Profiles

Position Reports

Time Latitude Longitude Heading Altitude Ground
Speed
02-Dec-19 19:36 34.964036 -120.231865 103 5671ft 106kts
02-Dec-19 19:37 34.967970 -120.196061 49 6021ft 121kts
02-Dec-19 19:38 34.993087 -120.168275 47 5577ft 131kts
02-Dec-19 19:39 35.014378 -120.134366 59 5311ft 120kts
02-Dec-19 19:40 35.025384 -120.100247 80 5557ft 106kts
02-Dec-19 19:41 35.028168 -120.062979 88 5599ft 111kts
02-Dec-19 19:42 35.033180 -120.024071 65 5476ft 117kts
02-Dec-19 19:43 35.044707 -119.986945 78 5403ft 116kts
02-Dec-19 19:44 35.048031 -119.948926 77 5505ft 110kts
02-Dec-19 19:45 35.069155 -119.922763 40 5498ft 116kts
02-Dec-19 19:46 35.086767 -119.890009 68 5449ft 116kts
02-Dec-19 19:47 35.096733 -119.852179 75 5374ft 117kts
02-Dec-19 19:48 35.108101 -119.815537 44 5280ft 117kts
02-Dec-19 19:49 35.127895 -119.786962 58 5338ft 116kts
02-Dec-19 19:50 35.144316 -119.754353 63 5411ft 113kts
02-Dec-19 19:51 35.157642 -119.719151 65 5446ft 115kts
02-Dec-19 19:52 35.170156 -119.683442 67 5527ft 113kts
02-Dec-19 19:53 35.182530 -119.646165 70 5424ft 119kts
02-Dec-19 19:54 35.195329 -119.609004 47 5441ft 119kts
02-Dec-19 19:55 35.216728 -119.577638 52 5456ft 121kts
02-Dec-19 19:56 35.235418 -119.543420 62 5479ft 121kts
02-Dec-19 19:57 35.243224 -119.503922 74 5546ft 118kts
02-Dec-19 19:58 35.260430 -119.469072 51 5580ft 119kts
02-Dec-19 19:59 35.276309 -119.433505 70 5674ft 116kts
02-Dec-19 20:00 35.280963 -119.393262 74 5776ft 117kts
02-Dec-19 20:01 35.300468 -119.360830 69 5920ft 120kts
02-Dec-19 20:02 35.312697 -119.322800 41 5875ft 124kts
02-Dec-19 20:03 35.339627 -119.295050 43 5312ft 143kts
02-Dec-19 20:04 35.362985 -119.263919 36 5331ft 117kts
02-Dec-19 20:05 35.386127 -119.235155 49 5049ft 135kts
02-Dec-19 20:06 35.400992 -119.193701 82 3215ft 125kts
02-Dec-19 20:07 35.400144 -119.152868 93 1539ft 103kts
02-Dec-19 20:08 35.397523 -119.125624 98 1230ft 73kts
02-Dec-19 20:09 35.396010 -119.099323 58 1805ft 80kts
02-Dec-19 20:10 35.404836 -119.070313 131 2221ft 96kts
02-Dec-19 20:11 35.383809 -119.046581 104 1884ft 101kts
02-Dec-19 20:12 35.405445 -119.033731 351 1119ft 57kts
02-Dec-19 20:13 35.419805 -119.042790 313 718ft 58kts
02-Dec-19 20:14 35.428796 -119.053555 313 474ft 27kts
02-Dec-19 20:15 35.432977 -119.058660 315 481ft 19kts
02-Dec-19 20:16 35.434169 -119.060862 221 481ft 0kts
02-Dec-19 20:17 35.433322 -119.060273 135 480ft 16kts
02-Dec-19 20:18 35.428660 -119.054619 138 472ft 7kts
02-Dec-19 20:19 35.427772 -119.055339 237 469ft 0kts
02-Dec-19 20:20 35.427772 -119.055339 237 469ft 0kts
02-Dec-19 20:21 35.427772 -119.055339 237 469ft 0kts
02-Dec-19 20:22 34.895642 -120.444789 314 265ft 0kts
02-Dec-19 20:23 34.895642 -120.444789 314 265ft 0kts
02-Dec-19 20:24 34.895642 -120.444789 314 265ft 0kts
02-Dec-19 20:25 34.895642 -120.444789 314 265ft 0kts
02-Dec-19 20:26 34.895642 -120.444789 314 265ft 0kts

Navigation Log

Ident Type
Flight plan parsing failed, navigation log unavailable